Sunday, June 26, 2016
08:11 UTC
  |  Log In   |  Register Free
Airport Search:

Corpus Christi International Airport
(KCRP)

FAA data valid effective May 26 2016 - Jul 21 2016 (unless otherwise noted).

 
 
 
 
 
 
 
 
 
 
 
 
 
 
Current Aviation Weather for KCRP

Weather Summary


The most recent METAR observation for CRP was updated at: 12:51 UTC
METAR for KCRP is not available. Closest METAR is for KRBO
KCRP  (most recent observation was updatred at 26:07 UTC)
260751Z 14005KT 10SM FEW018 FEW180 BKN250 25/24 A3003 RMK AO2 SLP167 T02500244 $

KRBO  (10.1 nm SE)   (most recent observation was updated at 26:07 UTC)
260750Z AUTO 13004KT 7SM CLR 26/25 A3003 RMK AO2 T02550248

KTFP  (17.6 nm SW)   (most recent observation was updated at 26:07 UTC)
260755Z AUTO 16003KT 10SM BKN018 BKN024 OVC030 28/26 A3003 RMK AO2 T02780255

TAF for KCRP is not available.
KCRP
260530Z 2606/2706 14006KT P6SM FEW020 BKN250 FM261600 14010KT P6SM SCT030 BKN250 FM261900 12014G19KT P6SM FEW035 SCT250 FM270100 13008KT P6SM FEW020 SCT250

KNGP  (12.1 nm NW)   (most recent observation was updatred at UTC)
2607/2707 15010KT 9999 SCT010 BKN030 QNH2995INS BECMG 2616/2618 12010G15KT 9999 FEW020 FEW030 SCT065 QNH2994INS AUTOMATED SENSOR METWATCH 2607 TIL 2709 T27/2612Z T31/2621Z FN00162


KNQI  (22.8 nm NE)   (most recent observation was updatred at UTC)
2607/2707 14010KT 9999 SCT085 BKN100 QNH2999INS BECMG 2610/2612 14005KT 8000 BR SCT010 BKN030 QNH2997INS BECMG 2616/2618 12013KT 9999 NSW SCT030 SCT090 BKN120 QNH2994INS BECMG 2700/2702 12005KT 9999 SCT010 BKN030 QNH2999INS AUTOMATED SENSOR METWATCH 2607 TIL 2621 T25/2612Z T34/2621Z FN00162
GlobalAir.com is loading additional information.
 Current Weather at CRP
79.0 F° (26.1 C°)

Southeast winds at 5.8 mph
Pressure:
30.03 in
Humidity:
94%
Wind:
Southeast at 5.8 mph
Dew Point:
77.0 F° (25.0 C°)
Visibility:
10.00 mi
CRP NOAA Radar




Find All Airport Services Find A Hotel Find A Rental Car Find A Golf Course Find A Restaurant $100 Hamburger



Airport Weather Forecast for KCRP

Translated METAR for KCRP (0751 UTC)
METAR:
KCRP 260751Z 14005KT 10SM FEW018 FEW180 BKN250 25/24 A3003 RMK AO2 SLP167 T02500244 $
Conditions at:
KCRP (Corpus Christi Intl, TX) observed 0751 UTC 26 June 2016
Temperature:
25°C (77°F)
Dewpoint:
24°C (75.2°F) [RH = 94.2]
Pressure:
30.03 inches Hg (1016.9 mb)
pressure at sea level is 167 in Hg
Winds:
from the SE (140 degrees) at 5.8 mph (5 knots: 2.6 m/s)
Visibility:
10 mile(s)
Ceiling:
25,000 feet AGL
Clouds:
Few Clouds at 1,800 feet AGL
Few Clouds at 18,000 feet AGL
Broken Cloud Cover at 25,000 feet AGL
Remarks:
SOME DATA ABOVE MAY BE INACCURATE!!!
"$" is an indication the sensor requires maintenance
site is automated and HAS a precipitation sensor

Translated TAF for KCRP (Corpus Christi Intl, TX) (0530 UTC)
TAF text:
KCRP 260530Z 2606/2706 14006KT P6SM FEW020 BKN250
Forecast period:
Sunday Jun 26 2016 06:00 UTC - Monday Jun 27 2016 06:00 UTC
Forecast type:
FROM: standard forecast or significant change
Winds:
from the SE (140 degrees) at 6.9 mph (6 knots: 3.1 m/s)
Visibility:
6 or more mile(s) (9.7+ km)
Ceiling:
25,000 feet AGL
Clouds:
Few Clouds at 2,000 feet AGL
Broken Cloud Cover at 25,000 feet AGL
Weather:
no significant weather observed at this time
TAF text:
FM261600 14010KT P6SM SCT030 BKN250
Forecast period:
Sunday Jun 26 2016 16:00 UTC - Sunday Jun 26 2016 19:00 UTC
Forecast type:
FROM: standard forecast or significant change
Winds:
from the SE (140 degrees) at 11.5 mph (10 knots: 5.1 m/s)
Visibility:
6 or more mile(s) (9.7+ km)
Ceiling:
25,000 feet AGL
Clouds:
Scattered Clouds at 3,000 feet AGL
Broken Cloud Cover at 25,000 feet AGL
Weather:
no significant weather observed at this time
TAF text:
FM261900 12014G19KT P6SM FEW035 SCT250
Forecast period:
Sunday Jun 26 2016 19:00 UTC - Monday Jun 27 2016 01:00 UTC
Forecast type:
FROM: standard forecast or significant change
Winds:
from the ESE (120 degrees) at 16.1 mph (14 knots: 7.2 m/s)
gusting to 21.9 mph (19 knots: 9.8 m/s)
Visibility:
6 or more mile(s) (9.7+ km)
Ceiling:
at least 12,000 feet AGL
Clouds:
Few Clouds at 3,500 feet AGL
Scattered Clouds at 25,000 feet AGL
Weather:
no significant weather observed at this time
TAF text:
FM270100 13008KT P6SM FEW020 SCT250
Forecast period:
Monday Jun 27 2016 01:00 UTC - Monday Jun 27 2016 06:00 UTC
Forecast type:
FROM: standard forecast or significant change
Winds:
from the SE (130 degrees) at 9.2 mph (8 knots: 4.1 m/s)
Visibility:
6 or more mile(s) (9.7+ km)
Ceiling:
at least 12,000 feet AGL
Clouds:
Few Clouds at 2,000 feet AGL
Scattered Clouds at 25,000 feet AGL
Weather:
no significant weather observed at this time
FBO's on the Field
FBO Company Facility Photos Services Transportation Aviation Fuel Prices: Prices include tax
Catering Weather Repair Courtesy Rental Type 100LL JetA JetA+ MOGAS 8087
 
Atlantic Aviation

This FBO has not yet been rated
FS:Independent
Last Updated: Jun-25
Login to update fuel prices
SS:
Contact Atlantic AviationMore FBO Information
 
Signature Flight Support

This FBO has not yet been rated
FS:Avfuel
Last Updated: Jun-25
Login to update fuel prices
SS:
Contact Signature Flight SupportMore FBO Information
 
Add another FBO Facility Photos Catering Weather Repair Courtesy Rental Type 100LL JetA JetA+ MOGAS 8087
Services Transportation Aviation Fuel Prices: Prices include tax


model-print
model-print
model-print
model-print